createdAt,value
2023-08-12T00:00:12.791Z,100081.66
2023-08-12T00:02:39.982Z,100083.91
2023-08-12T00:05:12.301Z,100076.72
2023-08-12T00:07:40.348Z,100072.28
2023-08-12T00:10:08.372Z,100072.81
2023-08-12T00:12:35.536Z,100068.94
2023-08-12T00:15:03.147Z,100061.97
2023-08-12T00:17:30.378Z,100067.81
2023-08-12T00:19:58.132Z,100064.19
2023-08-12T00:22:26.994Z,100066.16
2023-08-12T00:24:54.287Z,100065.38
2023-08-12T00:27:21.641Z,100061.19
2023-08-12T00:29:49.600Z,100061.34
2023-08-12T00:32:16.866Z,100060.25
2023-08-12T00:34:44.395Z,100051.66
2023-08-12T00:37:11.840Z,100054.84
2023-08-12T00:39:40.792Z,100063.72
2023-08-12T00:42:08.508Z,100055.84
2023-08-12T00:44:35.874Z,100052.41
2023-08-12T00:47:06.584Z,100053.09
2023-08-12T00:49:33.906Z,100049.63
2023-08-12T00:52:02.120Z,100046.72
2023-08-12T00:54:30.092Z,100053.13
2023-08-12T00:57:02.351Z,100040.69
2023-08-12T00:59:30.643Z,100038.63
2023-08-12T01:01:57.966Z,100023.38
2023-08-12T01:04:25.448Z,100017.88
2023-08-12T01:06:52.159Z,100015.06
2023-08-12T01:09:22.646Z,100023.66
2023-08-12T01:11:57.002Z,100016.09
2023-08-12T01:14:30.138Z,100015.56
2023-08-12T01:17:03.558Z,100016.16
2023-08-12T01:19:33.839Z,100015.69
2023-08-12T01:22:10.350Z,100005.38
2023-08-12T01:24:40.419Z,100011.16
2023-08-12T01:27:09.027Z,100010.63
2023-08-12T01:29:40.443Z,100001.72
2023-08-12T01:32:13.177Z,100000.09
2023-08-12T01:34:51.650Z,99998.44
2023-08-12T01:37:26.092Z,99998.69
2023-08-12T01:39:59.332Z,99994.63
2023-08-12T01:42:27.366Z,99984.56
2023-08-12T01:44:55.185Z,99984.84
2023-08-12T01:47:23.253Z,99985.09
2023-08-12T01:49:51.252Z,99979.84
2023-08-12T01:52:18.417Z,99970.72
2023-08-12T01:54:45.858Z,99968.41
2023-08-12T01:57:15.125Z,99969.03
2023-08-12T01:59:44.606Z,99961.03
2023-08-12T02:02:12.214Z,99951.84
2023-08-12T02:04:40.698Z,99956.84
2023-08-12T02:07:08.052Z,99955.72
2023-08-12T02:09:35.953Z,99951.78
2023-08-12T02:12:02.861Z,99947.91
2023-08-12T02:14:34.276Z,99947.88
2023-08-12T02:17:01.701Z,99942.34
2023-08-12T02:19:29.152Z,99932.94
2023-08-12T02:21:56.412Z,99938.81
2023-08-12T02:24:23.948Z,99937.16
2023-08-12T02:26:51.105Z,99935.47
2023-08-12T02:29:18.341Z,99928.47
2023-08-12T02:31:47.436Z,99924.28
2023-08-12T02:34:17.660Z,99915.50
2023-08-12T02:36:45.112Z,99919.66
2023-08-12T02:39:12.742Z,99914.66
2023-08-12T02:41:40.028Z,99912.72
2023-08-12T02:44:07.578Z,99920.22
2023-08-12T02:46:34.903Z,99919.63
2023-08-12T02:49:06.909Z,99921.88
2023-08-12T02:51:34.553Z,99927.19
2023-08-12T02:54:01.826Z,99929.34
2023-08-12T02:56:29.203Z,99923.25
2023-08-12T02:58:56.404Z,99920.25
2023-08-12T03:01:23.899Z,99911.88
2023-08-12T03:03:53.674Z,99909.63
2023-08-12T03:06:23.542Z,99902.75
2023-08-12T03:08:50.832Z,99908.00
2023-08-12T03:11:18.504Z,99905.00
2023-08-12T03:13:45.848Z,99902.47
2023-08-12T03:16:14.098Z,99903.03
2023-08-12T03:18:42.122Z,99895.84
2023-08-12T03:21:10.266Z,99890.31
2023-08-12T03:23:39.686Z,99884.22
2023-08-12T03:26:10.120Z,99880.03
2023-08-12T03:28:37.810Z,99868.66
2023-08-12T03:31:08.296Z,99871.38
2023-08-12T03:33:37.985Z,99866.75
2023-08-12T03:36:05.727Z,99855.13
2023-08-12T03:38:35.534Z,99852.06
2023-08-12T03:41:04.503Z,99841.78
2023-08-12T03:43:31.900Z,99848.47
2023-08-12T03:45:59.704Z,99847.81
2023-08-12T03:48:27.019Z,99849.44
2023-08-12T03:50:54.425Z,99855.97
2023-08-12T03:53:21.815Z,99843.19
2023-08-12T03:55:49.031Z,99852.88
2023-08-12T03:58:17.973Z,99841.53
2023-08-12T04:00:48.077Z,99843.75
2023-08-12T04:03:15.554Z,99835.72
2023-08-12T04:05:49.902Z,99831.56
2023-08-12T04:08:17.547Z,99822.38
2023-08-12T04:10:46.827Z,99818.81
2023-08-12T04:13:14.121Z,99823.56
2023-08-12T04:15:43.078Z,99821.59
2023-08-12T04:18:10.296Z,99816.25
2023-08-12T04:20:38.723Z,99827.66
2023-08-12T04:23:06.273Z,99820.78
2023-08-12T04:25:33.011Z,99828.53
2023-08-12T04:28:00.281Z,99821.34
2023-08-12T04:30:27.799Z,99816.75
2023-08-12T04:32:56.680Z,99830.44
2023-08-12T04:35:24.385Z,99821.41
2023-08-12T04:37:51.781Z,99819.56
2023-08-12T04:40:19.078Z,99818.25
2023-08-12T04:42:46.442Z,99806.88
2023-08-12T04:45:17.148Z,99815.44
2023-08-12T04:47:44.511Z,99822.16
2023-08-12T04:50:13.713Z,99813.75
2023-08-12T04:52:40.974Z,99818.50
2023-08-12T04:55:08.985Z,99819.31
2023-08-12T04:57:39.606Z,99813.28
2023-08-12T05:00:07.977Z,99814.09
2023-08-12T05:02:35.750Z,99818.56
2023-08-12T05:05:03.842Z,99813.75
2023-08-12T05:07:34.964Z,99818.25
2023-08-12T05:10:02.980Z,99817.38
2023-08-12T05:12:30.314Z,99812.19
2023-08-12T05:14:58.463Z,99801.94
2023-08-12T05:17:26.403Z,99813.00
2023-08-12T05:19:53.679Z,99814.09
2023-08-12T05:22:20.903Z,99815.69
2023-08-12T05:24:53.304Z,99806.84
2023-08-12T05:27:20.645Z,99802.69
2023-08-12T05:29:50.887Z,99799.97
2023-08-12T05:32:18.316Z,99806.56
2023-08-12T05:34:45.511Z,99808.31
2023-08-12T05:37:12.964Z,99816.09
2023-08-12T05:39:40.449Z,99804.44
2023-08-12T05:42:09.446Z,99802.19
2023-08-12T05:44:36.988Z,99811.66
2023-08-12T05:47:04.302Z,99802.22
2023-08-12T05:49:30.951Z,99805.78
2023-08-12T05:51:58.459Z,99800.25
2023-08-12T05:54:25.870Z,99802.44
2023-08-12T05:56:53.201Z,99795.53
2023-08-12T05:59:24.570Z,99792.78
2023-08-12T06:01:51.916Z,99803.88
2023-08-12T06:04:19.273Z,99795.31
2023-08-12T06:06:46.633Z,99799.72
2023-08-12T06:09:19.932Z,99794.75
2023-08-12T06:11:47.490Z,99787.22
2023-08-12T06:14:14.308Z,99779.22
2023-08-12T06:16:42.457Z,99786.72
2023-08-12T06:19:09.649Z,99782.00
2023-08-12T06:21:36.662Z,99788.91
2023-08-12T06:24:07.927Z,99795.03
2023-08-12T06:26:35.716Z,99803.34
2023-08-12T06:29:05.650Z,99792.78
2023-08-12T06:31:33.430Z,99791.72
2023-08-12T06:34:01.702Z,99793.66
2023-08-12T06:36:29.109Z,99790.56
2023-08-12T06:38:56.580Z,99788.91
2023-08-12T06:41:24.299Z,99780.06
2023-08-12T06:43:51.891Z,99781.47
2023-08-12T06:46:18.753Z,99792.53
2023-08-12T06:48:46.252Z,99787.56
2023-08-12T06:51:15.084Z,99785.59
2023-08-12T06:53:42.286Z,99783.38
2023-08-12T06:56:10.184Z,99784.25
2023-08-12T06:58:37.898Z,99790.88
2023-08-12T07:01:05.266Z,99798.91
2023-08-12T07:03:35.357Z,99793.34
2023-08-12T07:06:02.657Z,99790.31
2023-08-12T07:08:31.559Z,99791.16
2023-08-12T07:10:58.379Z,99786.16
2023-08-12T07:13:25.111Z,99783.97
2023-08-12T07:15:52.086Z,99783.66
2023-08-12T07:18:19.429Z,99792.25
2023-08-12T07:20:46.884Z,99785.63
2023-08-12T07:23:14.181Z,99792.25
2023-08-12T07:25:42.331Z,99786.63
2023-08-12T07:28:09.667Z,99791.78
2023-08-12T07:30:37.540Z,99783.00
2023-08-12T07:33:06.704Z,99779.59
2023-08-12T07:35:34.018Z,99787.44
2023-08-12T07:38:00.772Z,99780.69
2023-08-12T07:40:28.141Z,99776.00
2023-08-12T07:42:57.149Z,99777.00
2023-08-12T07:45:23.992Z,99783.38
2023-08-12T07:47:53.630Z,99782.25
2023-08-12T07:50:21.283Z,99780.53
2023-08-12T07:52:48.780Z,99782.59
2023-08-12T07:55:16.538Z,99783.75
2023-08-12T07:57:43.854Z,99778.72
2023-08-12T08:00:13.640Z,99780.66
2023-08-12T08:02:41.092Z,99783.75
2023-08-12T08:05:09.098Z,99768.97
2023-08-12T08:07:36.566Z,99771.03
2023-08-12T08:10:07.893Z,99766.38
2023-08-12T08:12:35.431Z,99768.66
2023-08-12T08:15:02.668Z,99767.16
2023-08-12T08:17:31.692Z,99760.63
2023-08-12T08:19:59.005Z,99770.34
2023-08-12T08:22:26.458Z,99763.72
2023-08-12T08:24:53.959Z,99770.50
2023-08-12T08:27:21.394Z,99762.09
2023-08-12T08:29:48.861Z,99756.59
2023-08-12T08:32:19.581Z,99757.94
2023-08-12T08:34:47.790Z,99753.41
2023-08-12T08:37:15.120Z,99756.41
2023-08-12T08:39:42.743Z,99747.78
2023-08-12T08:42:13.536Z,99752.81
2023-08-12T08:44:43.549Z,99750.84
2023-08-12T08:47:11.652Z,99750.13
2023-08-12T08:49:39.676Z,99757.41
2023-08-12T08:52:09.334Z,99750.06
2023-08-12T08:54:37.215Z,99745.13
2023-08-12T08:57:11.912Z,99746.91
2023-08-12T08:59:45.992Z,99739.47
2023-08-12T09:02:20.816Z,99739.22
2023-08-12T09:04:49.221Z,99740.69
2023-08-12T09:07:22.444Z,99737.38
2023-08-12T09:09:53.851Z,99731.56
2023-08-12T09:12:22.896Z,99738.88
2023-08-12T09:14:50.425Z,99744.25
2023-08-12T09:17:17.950Z,99730.66
2023-08-12T09:19:45.258Z,99726.97
2023-08-12T09:22:13.755Z,99737.63
2023-08-12T09:24:46.044Z,99740.13
2023-08-12T09:27:13.545Z,99744.72
2023-08-12T09:29:41.080Z,99739.41
2023-08-12T09:32:12.331Z,99752.63
2023-08-12T09:34:39.336Z,99746.38
2023-08-12T09:37:06.304Z,99754.13
2023-08-12T09:39:33.552Z,99752.31
2023-08-12T09:42:02.472Z,99742.91
2023-08-12T09:44:29.852Z,99742.69
2023-08-12T09:46:59.589Z,99739.50
2023-08-12T09:49:26.499Z,99740.25
2023-08-12T09:51:54.203Z,99741.47
2023-08-12T09:54:21.987Z,99736.38
2023-08-12T09:56:50.241Z,99737.97
2023-08-12T09:59:21.295Z,99732.63
2023-08-12T10:01:50.142Z,99737.44
2023-08-12T10:04:18.778Z,99748.28
2023-08-12T10:06:45.969Z,99749.53
2023-08-12T10:09:13.395Z,99746.97
2023-08-12T10:11:41.133Z,99742.25
2023-08-12T10:14:10.330Z,99750.19
2023-08-12T10:16:38.802Z,99751.25
2023-08-12T10:19:07.229Z,99755.47
2023-08-12T10:21:35.166Z,99759.59
2023-08-12T10:24:04.376Z,99749.75
2023-08-12T10:26:32.137Z,99745.13
2023-08-12T10:29:00.802Z,99739.28
2023-08-12T10:31:29.007Z,99739.72
2023-08-12T10:33:58.906Z,99737.09
2023-08-12T10:36:27.889Z,99736.34
2023-08-12T10:38:57.324Z,99730.09
2023-08-12T10:41:26.234Z,99727.00
2023-08-12T10:43:55.035Z,99729.25
2023-08-12T10:46:30.672Z,99728.38
2023-08-12T10:49:03.557Z,99728.91
2023-08-12T10:51:47.985Z,99718.22
2023-08-12T10:54:19.719Z,99722.44
2023-08-12T10:57:09.153Z,99730.38
2023-08-12T10:59:58.846Z,99714.16
2023-08-12T11:02:30.653Z,99723.78
2023-08-12T11:05:02.159Z,99730.31
2023-08-12T11:07:41.542Z,99719.81
2023-08-12T11:10:13.017Z,99730.63
2023-08-12T11:12:47.204Z,99723.81
2023-08-12T11:15:14.468Z,99726.03
2023-08-12T11:17:45.138Z,99715.97
2023-08-12T11:20:15.279Z,99726.38
2023-08-12T11:22:43.501Z,99726.41
2023-08-12T11:25:13.219Z,99728.63
2023-08-12T11:27:41.800Z,99725.09
2023-08-12T11:30:10.180Z,99726.97
2023-08-12T11:32:38.099Z,99720.50
2023-08-12T11:35:06.461Z,99724.69
2023-08-12T11:37:35.860Z,99718.09
2023-08-12T11:40:03.691Z,99711.38
2023-08-12T11:42:32.881Z,99718.53
2023-08-12T11:45:00.162Z,99723.25
2023-08-12T11:47:27.001Z,99719.03
2023-08-12T11:49:54.454Z,99721.88
2023-08-12T11:52:21.902Z,99723.81
2023-08-12T11:54:51.684Z,99730.47
2023-08-12T11:57:19.734Z,99721.56
2023-08-12T11:59:47.283Z,99727.66
2023-08-12T12:02:14.416Z,99734.00
2023-08-12T12:04:42.807Z,99740.91
2023-08-12T12:07:19.674Z,99753.69
2023-08-12T12:09:53.504Z,99758.66
2023-08-12T12:12:23.974Z,99745.44
2023-08-12T12:14:52.674Z,99739.03
2023-08-12T12:17:23.111Z,99744.59
2023-08-12T12:19:54.095Z,99747.94
2023-08-12T12:22:21.635Z,99743.38
2023-08-12T12:24:49.106Z,99748.69
2023-08-12T12:27:17.545Z,99734.53
2023-08-12T12:29:44.388Z,99733.50
2023-08-12T12:32:12.642Z,99736.44
2023-08-12T12:34:39.595Z,99748.16
2023-08-12T12:37:06.774Z,99748.00
2023-08-12T12:39:34.161Z,99748.31
2023-08-12T12:42:01.371Z,99740.56
2023-08-12T12:44:29.469Z,99738.25
2023-08-12T12:46:56.958Z,99741.84
2023-08-12T12:49:24.523Z,99732.97
2023-08-12T12:51:51.393Z,99741.72
2023-08-12T12:54:18.635Z,99742.00
2023-08-12T12:56:45.460Z,99718.78
2023-08-12T12:59:13.270Z,99725.41
2023-08-12T13:01:41.566Z,99721.66
2023-08-12T13:04:09.026Z,99722.06
2023-08-12T13:06:36.364Z,99728.59
2023-08-12T13:09:03.630Z,99726.13
2023-08-12T13:11:30.417Z,99718.00
2023-08-12T13:13:57.169Z,99719.91
2023-08-12T13:16:24.006Z,99709.75
2023-08-12T13:18:52.268Z,99728.03
2023-08-12T13:21:19.538Z,99724.47
2023-08-12T13:23:46.522Z,99726.25
2023-08-12T13:26:13.310Z,99719.03
2023-08-12T13:28:40.111Z,99714.00
2023-08-12T13:31:08.104Z,99721.84
2023-08-12T13:33:34.982Z,99725.97
2023-08-12T13:36:03.414Z,99721.53
2023-08-12T13:38:30.359Z,99723.31
2023-08-12T13:40:57.069Z,99725.13
2023-08-12T13:43:24.525Z,99718.38
2023-08-12T13:45:52.034Z,99720.94
2023-08-12T13:48:19.520Z,99726.50
2023-08-12T13:50:46.394Z,99721.84
2023-08-12T13:53:15.263Z,99718.81
2023-08-12T13:55:41.984Z,99724.28
2023-08-12T13:58:09.128Z,99722.69
2023-08-12T14:00:36.327Z,99716.53
2023-08-12T14:03:03.164Z,99713.97
2023-08-12T14:05:31.824Z,99714.47
2023-08-12T14:07:58.555Z,99728.59
2023-08-12T14:10:27.354Z,99718.59
2023-08-12T14:12:54.608Z,99731.53
2023-08-12T14:15:21.604Z,99729.06
2023-08-12T14:17:48.413Z,99735.09
2023-08-12T14:20:15.461Z,99741.28
2023-08-12T14:22:42.284Z,99732.31
2023-08-12T14:25:09.807Z,99739.09
2023-08-12T14:27:38.224Z,99738.34
2023-08-12T14:30:06.870Z,99746.13
2023-08-12T14:32:33.760Z,99740.25
2023-08-12T14:35:01.153Z,99742.75
2023-08-12T14:37:28.160Z,99741.66
2023-08-12T14:39:55.563Z,99746.00
2023-08-12T14:42:22.266Z,99754.78
2023-08-12T14:44:50.481Z,99755.22
2023-08-12T14:47:17.211Z,99755.97
2023-08-12T14:49:43.842Z,99754.56
2023-08-12T14:52:19.177Z,99759.00
2023-08-12T14:54:45.925Z,99756.91
2023-08-12T14:57:13.136Z,99750.78
2023-08-12T14:59:40.173Z,99765.09
2023-08-12T15:02:08.661Z,99765.78
2023-08-12T15:04:35.471Z,99759.44
2023-08-12T15:07:03.096Z,99757.28
2023-08-12T15:09:30.056Z,99751.19
2023-08-12T15:11:56.787Z,99748.50
2023-08-12T15:14:23.561Z,99752.50
2023-08-12T15:16:50.325Z,99752.94
2023-08-12T15:19:18.503Z,99765.22
2023-08-12T15:21:45.277Z,99776.44
2023-08-12T15:24:12.149Z,99757.88
2023-08-12T15:26:38.932Z,99758.44
2023-08-12T15:29:05.818Z,99763.38
2023-08-12T15:31:32.496Z,99765.19
2023-08-12T15:33:59.525Z,99775.50
2023-08-12T15:36:27.656Z,99765.00
2023-08-12T15:38:54.388Z,99764.88
2023-08-12T15:41:21.117Z,99755.81
2023-08-12T15:43:47.866Z,99756.75
2023-08-12T15:46:14.591Z,99750.88
2023-08-12T15:48:41.492Z,99756.06
2023-08-12T15:51:08.168Z,99759.44
2023-08-12T15:53:36.282Z,99758.84
2023-08-12T15:56:03.178Z,99768.56
2023-08-12T15:58:29.905Z,99764.25
2023-08-12T16:00:56.647Z,99760.44
2023-08-12T16:03:23.490Z,99749.66
2023-08-12T16:05:50.265Z,99749.22
2023-08-12T16:08:17.401Z,99749.22
2023-08-12T16:10:45.468Z,99748.97
2023-08-12T16:13:12.169Z,99753.28
2023-08-12T16:15:39.035Z,99757.19
2023-08-12T16:18:06.110Z,99740.09
2023-08-12T16:20:32.963Z,99759.16
2023-08-12T16:22:59.813Z,99755.88
2023-08-12T16:25:27.383Z,99749.84
2023-08-12T16:27:56.264Z,99749.28
2023-08-12T16:30:24.257Z,99739.34
2023-08-12T16:32:52.004Z,99755.03
2023-08-12T16:35:19.030Z,99768.88
2023-08-12T16:37:45.872Z,99758.06
2023-08-12T16:40:13.015Z,99763.16
2023-08-12T16:42:40.589Z,99760.41
2023-08-12T16:45:10.092Z,99765.69
2023-08-12T16:47:37.482Z,99773.63
2023-08-12T16:50:05.602Z,99756.06
2023-08-12T16:52:32.456Z,99766.25
2023-08-12T16:54:59.781Z,99760.91
2023-08-12T16:57:26.810Z,99754.94
2023-08-12T16:59:54.767Z,99756.66
2023-08-12T17:02:23.101Z,99765.91
2023-08-12T17:04:49.922Z,99754.41
2023-08-12T17:07:17.102Z,99759.97
2023-08-12T17:09:47.197Z,99741.50
2023-08-12T17:12:15.606Z,99750.19
2023-08-12T17:14:43.268Z,99754.41
2023-08-12T17:17:13.292Z,99751.50
2023-08-12T17:19:41.558Z,99770.72
2023-08-12T17:22:09.072Z,99753.47
2023-08-12T17:24:37.554Z,99745.03
2023-08-12T17:27:04.822Z,99750.88
2023-08-12T17:29:32.085Z,99738.09
2023-08-12T17:32:00.081Z,99742.19
2023-08-12T17:34:27.504Z,99752.47
2023-08-12T17:36:56.779Z,99755.88
2023-08-12T17:39:24.093Z,99749.06
2023-08-12T17:41:51.498Z,99751.69
2023-08-12T17:44:18.958Z,99743.84
2023-08-12T17:46:45.830Z,99744.25
2023-08-12T17:49:25.285Z,99741.84
2023-08-12T17:58:27.293Z,99742.94
2023-08-12T18:00:54.707Z,99741.09
2023-08-12T18:03:22.568Z,99757.50
2023-08-12T18:05:50.261Z,99758.22
2023-08-12T18:08:17.895Z,99747.78
2023-08-12T18:10:45.371Z,99749.63
2023-08-12T18:13:13.171Z,99752.75
2023-08-12T18:15:42.019Z,99759.31
2023-08-12T18:18:08.825Z,99748.00
2023-08-12T18:20:36.316Z,99745.66
2023-08-12T18:23:04.174Z,99745.31
2023-08-12T18:25:31.865Z,99751.34
2023-08-12T18:27:59.258Z,99748.28
2023-08-12T18:30:27.040Z,99750.88
2023-08-12T18:32:56.109Z,99753.44
2023-08-12T18:35:23.861Z,99752.56
2023-08-12T18:37:51.419Z,99768.31
2023-08-12T18:40:18.897Z,99768.66
2023-08-12T18:42:46.265Z,99764.41
2023-08-12T18:45:13.957Z,99761.19
2023-08-12T18:47:41.631Z,99763.31
2023-08-12T18:50:10.471Z,99767.03
2023-08-12T18:52:41.273Z,99761.72
2023-08-12T18:55:09.223Z,99765.38
2023-08-12T18:57:36.688Z,99766.66
2023-08-12T19:00:04.943Z,99770.81
2023-08-12T19:02:32.210Z,99770.56
2023-08-12T19:05:00.184Z,99771.63
2023-08-12T19:07:29.028Z,99774.75
2023-08-12T19:09:56.578Z,99773.09
2023-08-12T19:12:24.178Z,99782.16
2023-08-12T19:14:51.504Z,99780.28
2023-08-12T19:17:20.399Z,99783.25
2023-08-12T19:19:49.821Z,99782.75
2023-08-12T19:22:17.467Z,99788.69
2023-08-12T19:24:47.142Z,99787.56
2023-08-12T19:27:15.243Z,99784.00
2023-08-12T19:29:42.692Z,99774.28
2023-08-12T19:32:10.006Z,99776.16
2023-08-12T19:34:37.792Z,99779.53
2023-08-12T19:37:05.421Z,99786.09
2023-08-12T19:39:33.161Z,99776.84
2023-08-12T19:42:02.374Z,99778.47
2023-08-12T19:44:29.131Z,99773.56
2023-08-12T19:46:56.973Z,99782.06
2023-08-12T19:49:24.268Z,99779.66
2023-08-12T19:51:54.375Z,99777.38
2023-08-12T19:54:21.168Z,99779.44
2023-08-12T19:56:48.775Z,99783.66
2023-08-12T19:59:17.544Z,99790.22
2023-08-12T20:01:45.051Z,99779.16
2023-08-12T20:04:12.662Z,99786.72
2023-08-12T20:06:39.950Z,99784.44
2023-08-12T20:09:07.286Z,99785.31
2023-08-12T20:11:34.712Z,99794.47
2023-08-12T20:14:02.445Z,99798.91
2023-08-12T20:16:31.830Z,99808.31
2023-08-12T20:19:01.380Z,99807.22
2023-08-12T20:21:32.245Z,99811.66
2023-08-12T20:23:59.025Z,99807.25
2023-08-12T20:26:27.125Z,99816.31
2023-08-12T20:28:53.884Z,99824.94
2023-08-12T20:31:22.925Z,99816.94
2023-08-12T20:33:52.350Z,99813.53
2023-08-12T20:36:20.838Z,99824.41
2023-08-12T20:38:48.439Z,99823.31
2023-08-12T20:41:16.210Z,99822.44
2023-08-12T20:43:42.945Z,99825.75
2023-08-12T20:46:10.509Z,99825.44
2023-08-12T20:48:38.101Z,99826.59
2023-08-12T20:51:06.723Z,99827.19
2023-08-12T20:53:34.141Z,99819.91
2023-08-12T20:56:00.863Z,99821.84
2023-08-12T20:58:28.179Z,99828.50
2023-08-12T21:00:56.039Z,99829.63
2023-08-12T21:03:24.260Z,99829.00
2023-08-12T21:05:52.214Z,99826.56
2023-08-12T21:08:21.835Z,99831.56
2023-08-12T21:10:52.410Z,99823.19
2023-08-12T21:13:20.135Z,99828.22
2023-08-12T21:15:48.660Z,99829.09
2023-08-12T21:18:16.312Z,99837.69
2023-08-12T21:20:43.017Z,99830.16
2023-08-12T21:23:10.296Z,99839.34
2023-08-12T21:25:38.716Z,99834.91
2023-08-12T21:28:07.407Z,99836.59
2023-08-12T21:30:34.787Z,99832.69
2023-08-12T21:33:01.573Z,99832.16
2023-08-12T21:35:29.273Z,99836.34
2023-08-12T21:37:57.589Z,99837.41
2023-08-12T21:40:24.548Z,99841.59
2023-08-12T21:42:52.648Z,99841.03
2023-08-12T21:45:20.473Z,99843.81
2023-08-12T21:47:47.771Z,99842.19
2023-08-12T21:50:14.766Z,99839.94
2023-08-12T21:52:42.283Z,99835.50
2023-08-12T21:55:10.492Z,99837.19
2023-08-12T21:57:37.998Z,99835.44
2023-08-12T22:00:09.098Z,99834.91
2023-08-12T22:02:36.874Z,99836.00
2023-08-12T22:05:04.418Z,99839.38
2023-08-12T22:07:31.850Z,99840.38
2023-08-12T22:09:59.503Z,99836.53
2023-08-12T22:12:27.259Z,99849.28
2023-08-12T22:14:54.656Z,99850.97
2023-08-12T22:17:24.223Z,99850.44
2023-08-12T22:19:51.479Z,99850.19
2023-08-12T22:22:20.347Z,99854.88
2023-08-12T22:24:48.409Z,99854.25
2023-08-12T22:27:16.424Z,99854.31
2023-08-12T22:29:45.168Z,99841.75
2023-08-12T22:32:13.003Z,99849.31
2023-08-12T22:34:42.072Z,99846.00
2023-08-12T22:37:10.917Z,99847.69
2023-08-12T22:39:38.976Z,99840.47
2023-08-12T22:42:07.359Z,99838.78
2023-08-12T22:44:35.256Z,99835.84
2023-08-12T22:47:04.766Z,99834.31
2023-08-12T22:49:32.207Z,99831.03
2023-08-12T22:52:01.251Z,99830.44
2023-08-12T22:54:28.076Z,99826.56
2023-08-12T22:56:54.874Z,99830.72
2023-08-12T22:59:22.311Z,99837.22
2023-08-12T23:01:49.589Z,99833.22
2023-08-12T23:04:16.449Z,99834.34
2023-08-12T23:06:44.264Z,99832.50
2023-08-12T23:09:14.300Z,99837.69
2023-08-12T23:11:41.111Z,99841.56
2023-08-12T23:14:07.925Z,99848.47
2023-08-12T23:16:35.273Z,99842.16
2023-08-12T23:19:02.681Z,99847.66
2023-08-12T23:21:32.088Z,99845.91
2023-08-12T23:23:58.813Z,99849.72
2023-08-12T23:26:26.985Z,99853.47
2023-08-12T23:28:53.664Z,99852.59
2023-08-12T23:31:20.428Z,99845.13
2023-08-12T23:33:47.549Z,99842.91
2023-08-12T23:36:14.282Z,99834.38
2023-08-12T23:38:41.011Z,99843.59
2023-08-12T23:41:08.006Z,99835.53
2023-08-12T23:43:36.093Z,99837.22
2023-08-12T23:46:03.062Z,99844.81
2023-08-12T23:48:31.713Z,99846.56
2023-08-12T23:50:58.490Z,99836.28
2023-08-12T23:53:25.530Z,99845.84
2023-08-12T23:55:52.583Z,99849.00
2023-08-12T23:58:19.304Z,99842.38
